createdAt,value
2019-01-14T00:00:59.384Z,83.32
2019-01-14T00:03:28.403Z,83.30
2019-01-14T00:05:59.493Z,83.28
2019-01-14T00:08:28.532Z,83.26
2019-01-14T00:10:57.572Z,83.27
2019-01-14T00:13:26.629Z,83.26
2019-01-14T00:15:55.667Z,83.29
2019-01-14T00:18:24.711Z,83.27
2019-01-14T00:20:53.793Z,83.28
2019-01-14T00:23:22.828Z,83.28
2019-01-14T00:25:52.827Z,83.27
2019-01-14T00:28:21.884Z,83.30
2019-01-14T00:30:50.946Z,83.28
2019-01-14T00:33:19.983Z,83.22
2019-01-14T00:35:49.124Z,83.23
2019-01-14T00:38:18.161Z,83.27
2019-01-14T00:40:47.207Z,83.29
2019-01-14T00:43:16.315Z,83.33
2019-01-14T00:46:10.302Z,83.36
2019-01-14T00:48:39.445Z,83.36
2019-01-14T00:51:08.479Z,83.33
2019-01-14T00:53:37.512Z,83.36
2019-01-14T00:56:06.568Z,83.45
2019-01-14T00:58:35.613Z,83.47
2019-01-14T01:01:04.634Z,83.52
2019-01-14T01:03:33.846Z,83.54
2019-01-14T01:06:02.890Z,83.61
2019-01-14T01:08:31.921Z,83.69
2019-01-14T01:11:00.988Z,83.66
2019-01-14T01:13:30.025Z,83.61
2019-01-14T01:16:17.568Z,83.58
2019-01-14T01:18:46.605Z,83.66
2019-01-14T01:21:15.631Z,83.67
2019-01-14T01:23:44.702Z,83.72
2019-01-14T01:26:13.731Z,83.88
2019-01-14T01:28:42.767Z,83.77
2019-01-14T01:31:11.835Z,82.61
2019-01-14T01:33:40.881Z,82.06
2019-01-14T01:36:09.928Z,81.77
2019-01-14T01:38:38.997Z,81.95
2019-01-14T01:41:08.019Z,82.19
2019-01-14T01:43:37.048Z,82.44
2019-01-14T01:46:06.137Z,82.67
2019-01-14T01:48:35.170Z,82.87
2019-01-14T01:51:04.204Z,82.94
2019-01-14T01:53:33.267Z,82.76
2019-01-14T01:56:02.293Z,82.69
2019-01-14T01:58:31.323Z,82.76
2019-01-14T02:01:00.397Z,82.94
2019-01-14T02:03:29.429Z,83.08
2019-01-14T02:05:59.468Z,83.14
2019-01-14T02:08:28.595Z,83.13
2019-01-14T02:10:57.637Z,83.03
2019-01-14T02:13:26.658Z,82.76
2019-01-14T02:15:55.722Z,82.43
2019-01-14T02:18:24.756Z,82.39
2019-01-14T02:20:53.776Z,82.49
2019-01-14T02:23:22.893Z,82.60
2019-01-14T02:25:51.917Z,82.74
2019-01-14T02:28:20.943Z,82.83
2019-01-14T02:30:50.018Z,82.77
2019-01-14T02:33:19.046Z,82.60
2019-01-14T02:35:48.074Z,82.47
2019-01-14T02:38:17.132Z,82.47
2019-01-14T02:40:46.156Z,82.31
2019-01-14T02:43:15.201Z,82.33
2019-01-14T02:45:44.254Z,82.25
2019-01-14T02:48:13.279Z,82.43
2019-01-14T02:50:42.323Z,82.41
2019-01-14T02:53:11.524Z,82.34
2019-01-14T02:55:40.559Z,82.46
2019-01-14T02:58:09.585Z,82.50
2019-01-14T03:00:38.669Z,82.67
2019-01-14T03:03:07.695Z,82.33
2019-01-14T03:05:50.378Z,82.17
2019-01-14T03:08:19.400Z,82.08
2019-01-14T03:10:48.433Z,81.82
2019-01-14T03:13:17.506Z,82.06
2019-01-14T03:15:46.548Z,81.93
2019-01-14T03:18:15.589Z,81.71
2019-01-14T03:20:44.650Z,81.79
2019-01-14T03:23:13.688Z,81.91
2019-01-14T03:25:42.719Z,81.83
2019-01-14T03:28:11.779Z,82.30
2019-01-14T03:30:40.810Z,82.89
2019-01-14T03:33:09.842Z,82.00
2019-01-14T03:35:38.944Z,81.85
2019-01-14T03:38:07.970Z,82.40
2019-01-14T03:40:37.010Z,82.26
2019-01-14T03:43:06.074Z,81.52
2019-01-14T03:45:35.119Z,82.02
2019-01-14T03:48:04.168Z,81.65
2019-01-14T03:50:33.229Z,81.58
2019-01-14T03:53:02.277Z,81.80
2019-01-14T03:55:31.305Z,81.97
2019-01-14T03:58:00.393Z,81.70
2019-01-14T04:00:29.424Z,81.68
2019-01-14T04:02:58.455Z,81.77
2019-01-14T04:05:27.527Z,81.57
2019-01-14T04:07:56.558Z,81.68
2019-01-14T04:10:25.584Z,81.95
2019-01-14T04:12:54.645Z,81.43
2019-01-14T04:15:23.679Z,81.73
2019-01-14T04:17:52.723Z,81.54
2019-01-14T04:20:21.800Z,81.99
2019-01-14T04:22:50.836Z,81.80
2019-01-14T04:25:19.879Z,81.90
2019-01-14T04:27:48.937Z,82.00
2019-01-14T04:30:18.919Z,81.98
2019-01-14T04:32:47.996Z,82.30
2019-01-14T04:35:17.005Z,82.40
2019-01-14T04:37:46.043Z,82.40
2019-01-14T04:40:15.135Z,82.32
2019-01-14T04:42:44.264Z,82.38
2019-01-14T04:45:13.312Z,82.30
2019-01-14T04:47:42.352Z,82.17
2019-01-14T04:50:11.424Z,82.04
2019-01-14T04:52:40.465Z,82.03
2019-01-14T04:55:09.511Z,82.00
2019-01-14T04:57:38.581Z,81.96
2019-01-14T05:00:07.619Z,81.64
2019-01-14T05:02:36.656Z,81.30
2019-01-14T05:05:05.837Z,80.79
2019-01-14T05:07:34.858Z,80.91
2019-01-14T05:10:03.899Z,80.85
2019-01-14T05:12:33.046Z,80.60
2019-01-14T05:15:02.077Z,80.74
2019-01-14T05:17:31.114Z,80.16
2019-01-14T05:20:00.251Z,79.87
2019-01-14T05:22:29.213Z,79.43
2019-01-14T05:24:58.240Z,79.41
2019-01-14T05:27:27.323Z,79.27
2019-01-14T05:29:56.362Z,78.92
2019-01-14T05:32:25.379Z,78.34
2019-01-14T05:34:54.437Z,78.78
2019-01-14T05:37:23.463Z,78.53
2019-01-14T05:39:52.511Z,78.68
2019-01-14T05:42:21.563Z,77.96
2019-01-14T05:44:50.619Z,78.23
2019-01-14T05:47:19.646Z,78.27
2019-01-14T05:49:48.778Z,77.64
2019-01-14T05:52:17.815Z,76.36
2019-01-14T05:54:46.897Z,77.09
2019-01-14T05:57:15.911Z,77.54
2019-01-14T05:59:44.941Z,77.04
2019-01-14T06:02:13.973Z,76.78
2019-01-14T06:04:43.219Z,76.42
2019-01-14T06:07:12.255Z,75.89
2019-01-14T06:09:41.290Z,75.68
2019-01-14T06:12:10.534Z,75.30
2019-01-14T06:14:39.572Z,75.83
2019-01-14T06:17:08.600Z,75.91
2019-01-14T06:19:37.657Z,76.20
2019-01-14T06:22:06.688Z,75.56
2019-01-14T06:24:35.735Z,75.44
2019-01-14T06:27:04.787Z,75.00
2019-01-14T06:29:33.821Z,74.63
2019-01-14T06:32:03.021Z,75.25
2019-01-14T06:34:32.135Z,74.75
2019-01-14T06:37:01.165Z,74.90
2019-01-14T06:39:30.200Z,74.74
2019-01-14T06:41:59.272Z,74.75
2019-01-14T06:44:28.312Z,73.35
2019-01-14T06:46:57.348Z,73.44
2019-01-14T06:49:26.413Z,73.62
2019-01-14T06:51:55.455Z,74.13
2019-01-14T06:54:24.523Z,73.59
2019-01-14T06:56:53.625Z,73.96
2019-01-14T06:59:22.662Z,72.50
2019-01-14T07:01:51.795Z,72.89
2019-01-14T07:04:20.856Z,73.04
2019-01-14T07:06:49.883Z,72.64
2019-01-14T07:09:18.927Z,71.90
2019-01-14T07:11:47.985Z,72.21
2019-01-14T07:14:17.023Z,72.13
2019-01-14T07:16:46.072Z,72.06
2019-01-14T07:19:15.183Z,71.73
2019-01-14T07:21:44.230Z,69.69
2019-01-14T07:24:13.259Z,69.75
2019-01-14T07:26:42.329Z,69.91
2019-01-14T07:29:11.367Z,69.51
2019-01-14T07:31:40.404Z,68.35
2019-01-14T07:34:09.470Z,67.83
2019-01-14T07:36:38.500Z,68.12
2019-01-14T07:39:07.550Z,68.33
2019-01-14T07:41:36.808Z,67.64
2019-01-14T07:44:05.870Z,67.69
2019-01-14T07:46:34.901Z,67.43
2019-01-14T07:49:03.968Z,67.29
2019-01-14T07:51:32.997Z,66.52
2019-01-14T07:54:02.052Z,66.49
2019-01-14T07:56:31.111Z,65.87
2019-01-14T07:59:00.138Z,66.06
2019-01-14T08:01:29.165Z,65.40
2019-01-14T08:03:58.265Z,65.90
2019-01-14T08:06:27.299Z,65.96
2019-01-14T08:08:56.331Z,66.18
2019-01-14T08:11:25.384Z,65.34
2019-01-14T08:13:54.423Z,65.53
2019-01-14T08:16:23.436Z,64.71
2019-01-14T08:18:52.504Z,64.62
2019-01-14T08:21:21.548Z,64.52
2019-01-14T08:23:50.567Z,64.31
2019-01-14T08:26:19.675Z,63.70
2019-01-14T08:28:48.703Z,63.20
2019-01-14T08:31:17.739Z,61.51
2019-01-14T08:33:46.817Z,62.61
2019-01-14T08:36:15.867Z,62.43
2019-01-14T08:38:44.896Z,62.35
2019-01-14T08:41:13.959Z,62.22
2019-01-14T08:43:42.984Z,60.96
2019-01-14T08:46:13.025Z,60.37
2019-01-14T08:48:48.597Z,60.14
2019-01-14T08:51:11.130Z,59.96
2019-01-14T08:53:40.158Z,59.98
2019-01-14T08:56:09.228Z,60.23
2019-01-14T08:58:38.262Z,59.67
2019-01-14T09:01:07.304Z,59.48
2019-01-14T09:03:36.363Z,59.30
2019-01-14T09:06:05.404Z,59.56
2019-01-14T09:08:34.445Z,58.62
2019-01-14T09:11:03.545Z,58.99
2019-01-14T09:13:32.580Z,58.82
2019-01-14T09:16:01.609Z,58.02
2019-01-14T09:18:30.669Z,58.56
2019-01-14T09:20:59.712Z,58.54
2019-01-14T09:23:28.750Z,58.86
2019-01-14T09:25:57.823Z,59.63
2019-01-14T09:28:26.883Z,59.46
2019-01-14T09:30:55.917Z,58.70
2019-01-14T09:33:25.007Z,58.11
2019-01-14T09:35:54.061Z,58.58
2019-01-14T09:38:23.087Z,56.82
2019-01-14T09:40:52.145Z,57.27
2019-01-14T09:43:21.184Z,57.05
2019-01-14T09:45:52.257Z,57.37
2019-01-14T09:48:21.364Z,57.07
2019-01-14T09:50:50.418Z,56.89
2019-01-14T09:53:19.477Z,56.32
2019-01-14T09:55:48.668Z,56.14
2019-01-14T09:58:17.720Z,56.93
2019-01-14T10:00:46.767Z,57.43
2019-01-14T10:03:15.854Z,57.32
2019-01-14T10:05:44.892Z,57.01
2019-01-14T10:08:13.934Z,56.78
2019-01-14T10:10:43.006Z,56.68
2019-01-14T10:13:12.037Z,55.59
2019-01-14T10:15:41.134Z,56.16
2019-01-14T10:18:10.211Z,56.43
2019-01-14T10:20:39.246Z,55.42
2019-01-14T10:23:08.289Z,55.23
2019-01-14T10:26:00.936Z,55.91
2019-01-14T10:28:29.966Z,55.54
2019-01-14T10:30:59.029Z,55.98
2019-01-14T10:33:28.073Z,55.89
2019-01-14T10:35:57.116Z,55.81
2019-01-14T10:38:26.227Z,54.67
2019-01-14T10:40:55.252Z,55.43
2019-01-14T10:43:24.295Z,55.59
2019-01-14T10:45:53.331Z,55.63
2019-01-14T10:48:22.357Z,55.74
2019-01-14T10:50:51.389Z,55.70
2019-01-14T10:53:20.440Z,55.86
2019-01-14T10:55:49.467Z,56.11
2019-01-14T10:58:18.504Z,55.93
2019-01-14T11:00:47.702Z,55.98
2019-01-14T11:03:16.737Z,55.31
2019-01-14T11:05:45.769Z,55.96
2019-01-14T11:08:14.837Z,55.87
2019-01-14T11:10:43.865Z,55.47
2019-01-14T11:13:12.900Z,55.53
2019-01-14T11:15:45.026Z,55.37
2019-01-14T11:18:14.055Z,55.12
2019-01-14T11:20:43.091Z,55.58
2019-01-14T11:23:12.243Z,54.12
2019-01-14T11:25:41.275Z,54.15
2019-01-14T11:28:10.314Z,53.76
2019-01-14T11:30:39.374Z,54.52
2019-01-14T11:33:08.414Z,55.23
2019-01-14T11:35:37.440Z,55.08
2019-01-14T11:38:06.495Z,54.92
2019-01-14T11:40:35.580Z,54.50
2019-01-14T11:43:04.614Z,55.02
2019-01-14T11:45:33.689Z,54.13
2019-01-14T11:48:02.723Z,54.74
2019-01-14T11:50:31.755Z,54.71
2019-01-14T11:53:00.809Z,54.73
2019-01-14T11:55:29.840Z,54.35
2019-01-14T11:57:58.869Z,54.28
2019-01-14T12:00:27.940Z,54.53
2019-01-14T12:02:56.973Z,54.66
2019-01-14T12:05:26.008Z,54.63
2019-01-14T12:07:55.126Z,55.15
2019-01-14T12:10:24.154Z,55.46
2019-01-14T12:12:53.188Z,55.73
2019-01-14T12:15:22.262Z,55.97
2019-01-14T12:17:51.301Z,56.42
2019-01-14T12:20:20.335Z,56.50
2019-01-14T12:22:49.399Z,56.57
2019-01-14T12:25:19.854Z,57.02
2019-01-14T12:27:47.485Z,57.24
2019-01-14T12:30:32.256Z,57.12
2019-01-14T12:33:01.305Z,56.06
2019-01-14T12:35:30.330Z,56.99
2019-01-14T12:37:59.403Z,56.90
2019-01-14T12:40:28.424Z,56.38
2019-01-14T12:42:57.465Z,56.64
2019-01-14T12:45:26.623Z,57.07
2019-01-14T12:47:55.734Z,57.34
2019-01-14T12:50:24.713Z,57.62
2019-01-14T12:52:53.834Z,57.94
2019-01-14T12:55:22.867Z,58.25
2019-01-14T12:57:51.917Z,58.34
2019-01-14T13:00:21.704Z,59.27
2019-01-14T13:02:50.749Z,58.89
2019-01-14T13:05:19.804Z,58.79
2019-01-14T13:07:48.890Z,59.29
2019-01-14T13:10:18.017Z,59.11
2019-01-14T13:12:47.068Z,59.35
2019-01-14T13:15:16.444Z,59.04
2019-01-14T13:17:45.475Z,59.30
2019-01-14T13:20:15.383Z,59.11
2019-01-14T13:22:44.464Z,59.12
2019-01-14T13:25:13.509Z,59.26
2019-01-14T13:27:42.555Z,59.31
2019-01-14T13:30:13.517Z,59.04
2019-01-14T13:32:42.545Z,58.88
2019-01-14T13:35:11.601Z,57.55
2019-01-14T13:37:40.717Z,58.91
2019-01-14T13:40:09.751Z,58.85
2019-01-14T13:42:38.798Z,59.28
2019-01-14T13:45:09.711Z,59.06
2019-01-14T13:47:38.744Z,59.07
2019-01-14T13:50:07.792Z,58.96
2019-01-14T13:52:37.730Z,59.17
2019-01-14T13:55:06.772Z,59.22
2019-01-14T13:57:36.571Z,59.20
2019-01-14T14:00:06.606Z,59.06
2019-01-14T14:02:35.651Z,59.26
2019-01-14T14:05:05.929Z,59.58
2019-01-14T14:07:33.782Z,59.92
2019-01-14T14:10:02.831Z,59.77
2019-01-14T14:12:31.887Z,60.10
2019-01-14T14:15:00.945Z,60.06
2019-01-14T14:17:29.983Z,60.11
2019-01-14T14:19:59.028Z,60.19
2019-01-14T14:22:28.107Z,60.37
2019-01-14T14:24:57.155Z,60.53
2019-01-14T14:27:26.185Z,60.84
2019-01-14T14:29:55.330Z,60.90
2019-01-14T14:32:24.384Z,60.92
2019-01-14T14:34:53.424Z,61.04
2019-01-14T14:37:22.482Z,61.23
2019-01-14T14:39:51.530Z,61.34
2019-01-14T14:42:20.563Z,61.20
2019-01-14T14:44:49.645Z,61.11
2019-01-14T14:47:18.685Z,60.54
2019-01-14T14:49:47.730Z,60.42
2019-01-14T14:52:16.852Z,60.51
2019-01-14T14:54:45.841Z,60.34
2019-01-14T14:57:14.884Z,59.93
2019-01-14T14:59:43.952Z,59.54
2019-01-14T15:02:12.982Z,59.54
2019-01-14T15:04:42.014Z,59.61
2019-01-14T15:07:11.130Z,59.51
2019-01-14T15:09:40.172Z,59.32
2019-01-14T15:12:09.207Z,59.29
2019-01-14T15:14:38.285Z,59.02
2019-01-14T15:17:07.353Z,58.73
2019-01-14T15:19:36.391Z,58.12
2019-01-14T15:22:05.483Z,57.95
2019-01-14T15:24:34.510Z,57.94
2019-01-14T15:27:03.540Z,58.08
2019-01-14T15:29:32.799Z,57.86
2019-01-14T15:32:01.836Z,57.68
2019-01-14T15:34:30.868Z,57.67
2019-01-14T15:36:59.932Z,57.79
2019-01-14T15:39:28.972Z,57.76
2019-01-14T15:41:58.001Z,57.55
2019-01-14T15:44:27.067Z,57.29
2019-01-14T15:46:56.106Z,57.35
2019-01-14T15:49:25.138Z,57.27
2019-01-14T15:51:54.238Z,57.20
2019-01-14T15:54:23.276Z,57.24
2019-01-14T15:56:52.328Z,57.23
2019-01-14T15:59:21.398Z,57.46
2019-01-14T16:01:50.445Z,57.51
2019-01-14T16:04:19.500Z,57.57
2019-01-14T16:06:48.578Z,57.40
2019-01-14T16:09:17.619Z,57.55
2019-01-14T16:11:46.667Z,57.57
2019-01-14T16:14:15.787Z,57.44
2019-01-14T16:16:44.845Z,57.57
2019-01-14T16:19:13.880Z,57.60
2019-01-14T16:21:42.941Z,57.55
2019-01-14T16:24:11.992Z,57.53
2019-01-14T16:26:41.034Z,57.68
2019-01-14T16:29:10.102Z,57.59
2019-01-14T16:31:39.166Z,57.85
2019-01-14T16:34:08.212Z,57.65
2019-01-14T16:36:37.307Z,57.73
2019-01-14T16:39:06.352Z,57.38
2019-01-14T16:41:35.401Z,57.55
2019-01-14T16:44:04.475Z,57.32
2019-01-14T16:46:33.525Z,57.39
2019-01-14T16:49:02.563Z,56.99
2019-01-14T16:51:31.638Z,56.60
2019-01-14T16:54:00.675Z,56.48
2019-01-14T16:56:29.712Z,56.48
2019-01-14T16:58:58.812Z,56.41
2019-01-14T17:01:27.858Z,55.87
2019-01-14T17:03:56.908Z,55.81
2019-01-14T17:06:25.982Z,55.73
2019-01-14T17:08:55.039Z,55.77
2019-01-14T17:11:24.088Z,55.61
2019-01-14T17:13:53.249Z,55.50
2019-01-14T17:16:22.302Z,55.63
2019-01-14T17:18:51.363Z,54.94
2019-01-14T17:21:20.566Z,55.12
2019-01-14T17:23:49.618Z,55.32
2019-01-14T17:26:18.672Z,55.22
2019-01-14T17:28:47.756Z,55.32
2019-01-14T17:31:16.798Z,55.35
2019-01-14T17:33:45.838Z,55.39
2019-01-14T17:36:14.915Z,55.58
2019-01-14T17:38:43.972Z,55.88
2019-01-14T17:41:13.015Z,55.96
2019-01-14T17:43:42.099Z,56.07
2019-01-14T17:46:11.143Z,56.07
2019-01-14T17:48:40.181Z,56.17
2019-01-14T17:51:09.257Z,56.13
2019-01-14T17:53:38.306Z,56.37
2019-01-14T17:56:07.345Z,56.25
2019-01-14T17:58:37.291Z,56.08
2019-01-14T18:01:06.329Z,56.03
2019-01-14T18:03:35.362Z,56.06
2019-01-14T18:06:04.451Z,56.16
2019-01-14T18:08:33.505Z,56.16
2019-01-14T18:11:02.575Z,56.46
2019-01-14T18:13:31.663Z,56.37
2019-01-14T18:16:00.715Z,56.64
2019-01-14T18:18:29.753Z,56.59
2019-01-14T18:21:05.292Z,56.61
2019-01-14T18:23:27.870Z,56.82
2019-01-14T18:25:57.935Z,56.73
2019-01-14T18:28:27.051Z,56.26
2019-01-14T18:30:56.096Z,56.04
2019-01-14T18:33:25.206Z,56.20
2019-01-14T18:35:54.222Z,55.33
2019-01-14T18:38:23.260Z,55.93
2019-01-14T18:40:52.303Z,55.46
2019-01-14T18:43:21.379Z,55.55
2019-01-14T18:45:50.435Z,54.07
2019-01-14T18:48:19.495Z,53.21
2019-01-14T18:50:48.584Z,53.82
2019-01-14T18:53:17.629Z,53.76
2019-01-14T18:55:46.685Z,53.86
2019-01-14T18:58:15.767Z,53.55
2019-01-14T19:00:44.817Z,53.49
2019-01-14T19:03:13.854Z,52.86
2019-01-14T19:05:42.916Z,53.24
2019-01-14T19:08:11.964Z,53.12
2019-01-14T19:10:41.000Z,53.52
2019-01-14T19:13:10.126Z,53.60
2019-01-14T19:15:39.171Z,53.10
2019-01-14T19:18:08.209Z,52.50
2019-01-14T19:20:37.277Z,52.76
2019-01-14T19:23:06.324Z,53.22
2019-01-14T19:25:35.379Z,53.27
2019-01-14T19:28:04.493Z,53.57
2019-01-14T19:30:33.475Z,53.58
2019-01-14T19:33:02.520Z,53.44
2019-01-14T19:35:31.665Z,53.47
2019-01-14T19:38:00.711Z,53.42
2019-01-14T19:40:29.750Z,53.60
2019-01-14T19:42:58.825Z,53.56
2019-01-14T19:45:27.874Z,53.59
2019-01-14T19:47:56.902Z,53.35
2019-01-14T19:50:25.974Z,53.66
2019-01-14T19:52:55.025Z,53.77
2019-01-14T19:55:24.074Z,53.74
2019-01-14T19:57:53.183Z,52.57
2019-01-14T20:00:22.996Z,52.17
2019-01-14T20:02:52.029Z,52.22
2019-01-14T20:05:21.104Z,51.98
2019-01-14T20:07:50.126Z,50.59
2019-01-14T20:10:19.166Z,50.84
2019-01-14T20:12:48.227Z,50.57
2019-01-14T20:15:17.264Z,50.68
2019-01-14T20:17:46.290Z,50.60
2019-01-14T20:20:15.369Z,50.90
2019-01-14T20:22:44.412Z,51.16
2019-01-14T20:25:13.481Z,51.24
2019-01-14T20:27:42.559Z,51.04
2019-01-14T20:30:13.239Z,51.41
2019-01-14T20:32:42.277Z,50.91
2019-01-14T20:35:11.337Z,49.26
2019-01-14T20:37:40.366Z,49.61
2019-01-14T20:40:09.418Z,49.66
2019-01-14T20:42:38.518Z,49.90
2019-01-14T20:45:07.554Z,49.92
2019-01-14T20:47:36.626Z,49.92
2019-01-14T20:50:06.648Z,50.19
2019-01-14T20:52:35.690Z,50.31
2019-01-14T20:55:04.732Z,47.74
2019-01-14T20:57:33.821Z,50.03
2019-01-14T21:00:02.877Z,50.30
2019-01-14T21:02:31.935Z,50.71
2019-01-14T21:05:01.033Z,50.94
2019-01-14T21:07:31.231Z,51.26
2019-01-14T21:10:00.265Z,51.17
2019-01-14T21:12:29.332Z,51.12
2019-01-14T21:15:15.931Z,51.48
2019-01-14T21:17:41.183Z,51.44
2019-01-14T21:20:11.068Z,50.98
2019-01-14T21:22:40.112Z,50.94
2019-01-14T21:25:09.364Z,51.46
2019-01-14T21:27:38.424Z,51.35
2019-01-14T21:30:07.470Z,51.44
2019-01-14T21:32:36.550Z,51.44
2019-01-14T21:35:05.594Z,51.49
2019-01-14T21:37:34.627Z,51.19
2019-01-14T21:40:03.683Z,51.08
2019-01-14T21:42:32.725Z,51.26
2019-01-14T21:45:01.767Z,51.56
2019-01-14T21:47:32.769Z,51.18
2019-01-14T21:49:59.937Z,51.65
2019-01-14T21:52:28.959Z,51.62
2019-01-14T21:54:58.022Z,51.93
2019-01-14T21:57:27.078Z,52.03
2019-01-14T21:59:56.331Z,52.34
2019-01-14T22:02:25.203Z,52.42
2019-01-14T22:04:54.242Z,52.72
2019-01-14T22:07:23.277Z,52.89
2019-01-14T22:09:52.385Z,52.48
2019-01-14T22:12:21.414Z,52.75
2019-01-14T22:14:50.458Z,53.29
2019-01-14T22:17:19.525Z,53.55
2019-01-14T22:19:48.555Z,53.72
2019-01-14T22:22:18.194Z,53.80
2019-01-14T22:24:47.307Z,53.98
2019-01-14T22:27:16.372Z,53.87
2019-01-14T22:29:45.424Z,54.07
2019-01-14T22:32:14.530Z,54.13
2019-01-14T22:34:43.570Z,54.25
2019-01-14T22:37:12.632Z,54.47
2019-01-14T22:39:41.691Z,54.43
2019-01-14T22:42:10.777Z,54.41
2019-01-14T22:44:39.773Z,54.57
2019-01-14T22:47:08.860Z,54.35
2019-01-14T22:49:37.922Z,54.01
2019-01-14T22:52:06.977Z,54.06
2019-01-14T22:54:36.068Z,54.05
2019-01-14T22:57:05.144Z,54.11
2019-01-14T22:59:34.232Z,54.08
2019-01-14T23:02:03.314Z,54.23
2019-01-14T23:04:32.368Z,54.32
2019-01-14T23:07:01.437Z,54.76
2019-01-14T23:09:30.603Z,55.03
2019-01-14T23:11:59.677Z,55.36
2019-01-14T23:14:28.721Z,55.67
2019-01-14T23:16:58.195Z,55.95
2019-01-14T23:19:27.252Z,56.22
2019-01-14T23:21:56.306Z,56.58
2019-01-14T23:24:25.402Z,56.61
2019-01-14T23:26:54.458Z,56.72
2019-01-14T23:29:23.512Z,56.76
2019-01-14T23:31:52.581Z,56.86
2019-01-14T23:34:21.620Z,56.98
2019-01-14T23:36:50.672Z,57.03
2019-01-14T23:39:19.863Z,57.26
2019-01-14T23:41:48.915Z,57.22
2019-01-14T23:44:17.972Z,57.38
2019-01-14T23:46:48.441Z,57.46
2019-01-14T23:49:16.107Z,57.44
2019-01-14T23:51:45.153Z,57.53
2019-01-14T23:54:14.222Z,57.38
2019-01-14T23:56:43.271Z,57.58
2019-01-14T23:59:12.310Z,57.61
